MPDA/DAV METAR and TAF weather

Enter ICAO airport designator
Station Type Date Time Source
MPDA METAR 2022/08/12 14:00 UTC NOAA

MPDA 121400Z VRB02KT 9999 FEW018 BKN120 25/24 Q1013


Station Type Date Time Source
MPDA Decoded METAR 2022/08/12 14:00 UTC NOAA

David, Panama (MPDA) 08-24N 082-25W 26M
Aug 12, 2022 - 10:00 AM EDT / 2022.08.12 1400 UTC
Wind: Variable at 2 MPH (2 KT):0
Visibility: greater than 7 mile(s):0
Sky conditions: mostly cloudy
Temperature: 77 F (25 C)
Dew Point: 75 F (24 C)
Relative Humidity: 94%
Pressure (altimeter): 29.91 in. Hg (1013 hPa)
ob: MPDA 121400Z VRB02KT 9999 FEW018 BKN120 25/24 Q1013
cycle: 14

Station Type Date Time Source
MPDA TAF 2022/08/12 12:09 UTC NOAA

TAF COR TAF MPDA 121100Z 1212/1224 29005KT 9999 SCT018 SCT090
TEMPO 1218/1222 21005KT 6000 TSRA SCT015CB BKN090

Example: see airport list